Terminal Aerodrome Forecast
Issued by NWS Portland, OR

Home | Current Version | Previous Version | Text Only | Print | Product List | Glossary On
Versions: 1 2 3 4 5 6 7 8 9 10 11 12 13 14 15 16 17 18 19 20 21 22 23 24 25 26 27 28 29
000
FTUS46 KPQR 211728
TAFTTD
TAF
KTTD 211728Z 2118/2218 VRB03KT P6SM VCSH SCT025 BKN035 BKN080
     FM212000 18006KT P6SM SCT030 BKN060 BKN100
     FM220000 11007KT P6SM -RA OVC060
     FM220600 12011KT P6SM -RA OVC045
     FM221500 11010KT 5SM RA OVC035=

USA.gov is the U.S. government's official web portal to all federal, state and local government web resources and services.